Dockton, Washington
Current Conditions -  °F | °C
As of 1:53 PM on Sunday 25 Jan 2015 (Local Time) from KSEA Reporting Station
Broken Clouds Broken Clouds  
Wind Chill: 60°   Ceiling: 22000
Heat Index: 60°   Visibility: 10mi
Dew Point: 50°   Wind: 0mph
Humidity: 69%   Direction: NA
Pressure: 30.09"   Gusts: NA
Location:  47.4122°N, 122.472°W
Report Text: KSEA 252153Z 00000KT 10SM BKN220 16/10 A3009 RMK AO2 SLP197 T01560100
Loading
Personal Weather Stations






























Interactive Weather Map New forecast layout! Learn more

10-Day Weather Forecast

Advertisements
Track Severe Weather on mobile